sensor_id;sensor_type;location;lat;lon;timestamp;P1;durP1;ratioP1;P2;durP2;ratioP2
38591;SDS011;24356;48.460;11.450;2023-07-08T00:01:09;7.20;;;4.13;;
38591;SDS011;24356;48.460;11.450;2023-07-08T00:03:38;7.88;;;4.38;;
38591;SDS011;24356;48.460;11.450;2023-07-08T00:06:04;7.10;;;4.13;;
38591;SDS011;24356;48.460;11.450;2023-07-08T00:08:29;7.78;;;4.60;;
38591;SDS011;24356;48.460;11.450;2023-07-08T00:10:55;8.48;;;4.60;;
38591;SDS011;24356;48.460;11.450;2023-07-08T00:13:20;9.13;;;4.95;;
38591;SDS011;24356;48.460;11.450;2023-07-08T00:15:47;11.00;;;4.68;;
38591;SDS011;24356;48.460;11.450;2023-07-08T00:18:14;8.23;;;4.60;;
38591;SDS011;24356;48.460;11.450;2023-07-08T00:20:46;6.82;;;4.30;;
38591;SDS011;24356;48.460;11.450;2023-07-08T00:23:13;8.25;;;4.30;;
38591;SDS011;24356;48.460;11.450;2023-07-08T00:25:40;9.50;;;4.45;;
38591;SDS011;24356;48.460;11.450;2023-07-08T00:28:10;6.72;;;4.05;;
38591;SDS011;24356;48.460;11.450;2023-07-08T00:30:39;8.57;;;4.18;;
38591;SDS011;24356;48.460;11.450;2023-07-08T00:33:05;6.55;;;4.00;;
38591;SDS011;24356;48.460;11.450;2023-07-08T00:38:01;8.27;;;4.35;;
38591;SDS011;24356;48.460;11.450;2023-07-08T00:40:37;11.73;;;4.57;;
38591;SDS011;24356;48.460;11.450;2023-07-08T00:43:13;8.38;;;4.28;;
38591;SDS011;24356;48.460;11.450;2023-07-08T00:45:49;7.85;;;4.32;;
38591;SDS011;24356;48.460;11.450;2023-07-08T00:48:28;8.38;;;4.47;;
38591;SDS011;24356;48.460;11.450;2023-07-08T00:50:59;7.63;;;4.93;;
38591;SDS011;24356;48.460;11.450;2023-07-08T00:53:32;12.05;;;4.45;;
38591;SDS011;24356;48.460;11.450;2023-07-08T00:56:03;9.77;;;4.68;;
38591;SDS011;24356;48.460;11.450;2023-07-08T00:58:38;8.07;;;4.13;;
38591;SDS011;24356;48.460;11.450;2023-07-08T01:01:08;10.55;;;4.70;;
38591;SDS011;24356;48.460;11.450;2023-07-08T01:03:47;11.13;;;4.13;;
38591;SDS011;24356;48.460;11.450;2023-07-08T01:08:45;6.82;;;4.07;;
38591;SDS011;24356;48.460;11.450;2023-07-08T01:11:11;9.25;;;4.30;;
38591;SDS011;24356;48.460;11.450;2023-07-08T01:13:39;6.70;;;4.00;;
38591;SDS011;24356;48.460;11.450;2023-07-08T01:16:07;10.98;;;4.55;;
38591;SDS011;24356;48.460;11.450;2023-07-08T01:18:34;13.90;;;4.60;;
38591;SDS011;24356;48.460;11.450;2023-07-08T01:21:02;6.50;;;4.30;;
38591;SDS011;24356;48.460;11.450;2023-07-08T01:26:04;7.22;;;3.70;;
38591;SDS011;24356;48.460;11.450;2023-07-08T01:28:33;9.20;;;4.65;;
38591;SDS011;24356;48.460;11.450;2023-07-08T01:30:58;6.63;;;4.05;;
38591;SDS011;24356;48.460;11.450;2023-07-08T01:33:25;9.23;;;4.35;;
38591;SDS011;24356;48.460;11.450;2023-07-08T01:35:51;11.13;;;4.88;;
38591;SDS011;24356;48.460;11.450;2023-07-08T01:38:18;6.07;;;3.85;;
38591;SDS011;24356;48.460;11.450;2023-07-08T01:40:51;12.75;;;5.20;;
38591;SDS011;24356;48.460;11.450;2023-07-08T01:43:19;10.90;;;4.32;;
38591;SDS011;24356;48.460;11.450;2023-07-08T01:45:44;9.35;;;4.78;;
38591;SDS011;24356;48.460;11.450;2023-07-08T01:48:15;9.02;;;5.15;;
38591;SDS011;24356;48.460;11.450;2023-07-08T01:50:48;8.23;;;4.47;;
38591;SDS011;24356;48.460;11.450;2023-07-08T01:53:40;7.07;;;4.32;;
38591;SDS011;24356;48.460;11.450;2023-07-08T01:56:08;8.55;;;4.43;;
38591;SDS011;24356;48.460;11.450;2023-07-08T01:58:35;7.32;;;4.32;;
38591;SDS011;24356;48.460;11.450;2023-07-08T02:01:00;8.48;;;4.72;;
38591;SDS011;24356;48.460;11.450;2023-07-08T02:03:26;8.50;;;4.18;;
38591;SDS011;24356;48.460;11.450;2023-07-08T02:05:52;8.05;;;4.53;;
38591;SDS011;24356;48.460;11.450;2023-07-08T02:08:19;7.53;;;4.13;;
38591;SDS011;24356;48.460;11.450;2023-07-08T02:10:48;7.10;;;4.07;;
38591;SDS011;24356;48.460;11.450;2023-07-08T02:13:15;6.63;;;4.22;;
38591;SDS011;24356;48.460;11.450;2023-07-08T02:15:41;7.53;;;4.63;;
38591;SDS011;24356;48.460;11.450;2023-07-08T02:18:07;11.93;;;4.60;;
38591;SDS011;24356;48.460;11.450;2023-07-08T02:20:32;6.63;;;3.95;;
38591;SDS011;24356;48.460;11.450;2023-07-08T02:22:58;6.80;;;4.03;;
38591;SDS011;24356;48.460;11.450;2023-07-08T02:25:25;7.50;;;4.03;;
38591;SDS011;24356;48.460;11.450;2023-07-08T02:27:52;7.45;;;3.95;;
38591;SDS011;24356;48.460;11.450;2023-07-08T02:30:19;8.52;;;4.05;;
38591;SDS011;24356;48.460;11.450;2023-07-08T02:32:45;7.07;;;3.72;;
38591;SDS011;24356;48.460;11.450;2023-07-08T02:35:22;7.25;;;4.20;;
38591;SDS011;24356;48.460;11.450;2023-07-08T02:37:52;6.70;;;4.07;;
38591;SDS011;24356;48.460;11.450;2023-07-08T02:40:19;7.18;;;3.88;;
38591;SDS011;24356;48.460;11.450;2023-07-08T02:42:46;7.60;;;4.20;;
38591;SDS011;24356;48.460;11.450;2023-07-08T02:45:13;6.28;;;3.90;;
38591;SDS011;24356;48.460;11.450;2023-07-08T02:47:39;6.10;;;4.10;;
38591;SDS011;24356;48.460;11.450;2023-07-08T02:50:06;8.57;;;4.00;;
38591;SDS011;24356;48.460;11.450;2023-07-08T02:52:33;12.30;;;4.47;;
38591;SDS011;24356;48.460;11.450;2023-07-08T02:54:59;9.60;;;4.35;;
38591;SDS011;24356;48.460;11.450;2023-07-08T02:57:25;16.67;;;5.40;;
38591;SDS011;24356;48.460;11.450;2023-07-08T02:59:50;9.52;;;4.45;;
38591;SDS011;24356;48.460;11.450;2023-07-08T03:02:16;8.45;;;4.97;;
38591;SDS011;24356;48.460;11.450;2023-07-08T03:04:41;9.05;;;4.65;;
38591;SDS011;24356;48.460;11.450;2023-07-08T03:07:07;8.23;;;4.60;;
38591;SDS011;24356;48.460;11.450;2023-07-08T03:09:39;7.55;;;4.60;;
38591;SDS011;24356;48.460;11.450;2023-07-08T03:12:06;7.88;;;4.63;;
38591;SDS011;24356;48.460;11.450;2023-07-08T03:14:33;7.00;;;4.18;;
38591;SDS011;24356;48.460;11.450;2023-07-08T03:16:58;8.43;;;4.82;;
38591;SDS011;24356;48.460;11.450;2023-07-08T03:19:24;8.93;;;5.13;;
38591;SDS011;24356;48.460;11.450;2023-07-08T03:21:50;11.63;;;5.75;;
38591;SDS011;24356;48.460;11.450;2023-07-08T03:24:16;9.75;;;5.13;;
38591;SDS011;24356;48.460;11.450;2023-07-08T03:26:43;12.18;;;5.30;;
38591;SDS011;24356;48.460;11.450;2023-07-08T03:29:14;7.90;;;4.88;;
38591;SDS011;24356;48.460;11.450;2023-07-08T03:31:41;7.00;;;4.35;;
38591;SDS011;24356;48.460;11.450;2023-07-08T03:34:14;7.30;;;4.70;;
38591;SDS011;24356;48.460;11.450;2023-07-08T03:36:48;9.25;;;5.38;;
38591;SDS011;24356;48.460;11.450;2023-07-08T03:39:15;7.57;;;4.65;;
38591;SDS011;24356;48.460;11.450;2023-07-08T03:41:42;8.00;;;4.22;;
38591;SDS011;24356;48.460;11.450;2023-07-08T03:44:09;9.85;;;5.07;;
38591;SDS011;24356;48.460;11.450;2023-07-08T03:46:34;6.50;;;4.15;;
38591;SDS011;24356;48.460;11.450;2023-07-08T03:49:00;8.63;;;4.43;;
38591;SDS011;24356;48.460;11.450;2023-07-08T03:51:30;9.05;;;4.00;;
38591;SDS011;24356;48.460;11.450;2023-07-08T03:54:01;10.93;;;4.50;;
38591;SDS011;24356;48.460;11.450;2023-07-08T03:56:27;9.20;;;4.85;;
38591;SDS011;24356;48.460;11.450;2023-07-08T03:58:52;10.98;;;5.38;;
38591;SDS011;24356;48.460;11.450;2023-07-08T04:01:19;8.95;;;4.95;;
38591;SDS011;24356;48.460;11.450;2023-07-08T04:03:46;10.05;;;5.25;;
38591;SDS011;24356;48.460;11.450;2023-07-08T04:06:12;5.97;;;4.43;;
38591;SDS011;24356;48.460;11.450;2023-07-08T04:08:39;8.82;;;5.35;;
38591;SDS011;24356;48.460;11.450;2023-07-08T04:11:04;10.00;;;5.57;;
38591;SDS011;24356;48.460;11.450;2023-07-08T04:13:31;7.60;;;4.57;;
38591;SDS011;24356;48.460;11.450;2023-07-08T04:15:59;10.82;;;5.25;;
38591;SDS011;24356;48.460;11.450;2023-07-08T04:18:30;9.18;;;4.50;;
38591;SDS011;24356;48.460;11.450;2023-07-08T04:20:57;8.63;;;4.50;;
38591;SDS011;24356;48.460;11.450;2023-07-08T04:23:24;12.10;;;6.03;;
38591;SDS011;24356;48.460;11.450;2023-07-08T04:25:52;10.43;;;5.38;;
38591;SDS011;24356;48.460;11.450;2023-07-08T04:28:19;7.72;;;4.90;;
38591;SDS011;24356;48.460;11.450;2023-07-08T04:30:45;9.10;;;4.90;;
38591;SDS011;24356;48.460;11.450;2023-07-08T04:33:12;9.13;;;5.40;;
38591;SDS011;24356;48.460;11.450;2023-07-08T04:35:39;8.73;;;5.18;;
38591;SDS011;24356;48.460;11.450;2023-07-08T04:38:07;8.80;;;4.97;;
38591;SDS011;24356;48.460;11.450;2023-07-08T04:41:02;9.38;;;5.30;;
38591;SDS011;24356;48.460;11.450;2023-07-08T04:43:27;11.85;;;5.13;;
38591;SDS011;24356;48.460;11.450;2023-07-08T04:45:54;8.80;;;4.88;;
38591;SDS011;24356;48.460;11.450;2023-07-08T04:48:20;10.15;;;5.10;;
38591;SDS011;24356;48.460;11.450;2023-07-08T04:50:48;11.25;;;5.25;;
38591;SDS011;24356;48.460;11.450;2023-07-08T04:53:15;9.68;;;5.28;;
38591;SDS011;24356;48.460;11.450;2023-07-08T04:55:52;9.95;;;5.28;;
38591;SDS011;24356;48.460;11.450;2023-07-08T04:58:19;8.48;;;5.03;;
38591;SDS011;24356;48.460;11.450;2023-07-08T05:00:45;10.13;;;5.57;;
38591;SDS011;24356;48.460;11.450;2023-07-08T05:03:11;11.07;;;5.38;;
38591;SDS011;24356;48.460;11.450;2023-07-08T05:05:36;8.27;;;5.18;;
38591;SDS011;24356;48.460;11.450;2023-07-08T05:08:02;11.73;;;5.72;;
38591;SDS011;24356;48.460;11.450;2023-07-08T05:10:28;7.22;;;5.20;;
38591;SDS011;24356;48.460;11.450;2023-07-08T05:12:53;8.10;;;5.28;;
38591;SDS011;24356;48.460;11.450;2023-07-08T05:15:20;7.97;;;4.97;;
38591;SDS011;24356;48.460;11.450;2023-07-08T05:17:46;9.35;;;5.13;;
38591;SDS011;24356;48.460;11.450;2023-07-08T05:20:13;10.32;;;5.35;;
38591;SDS011;24356;48.460;11.450;2023-07-08T05:22:40;9.55;;;5.15;;
38591;SDS011;24356;48.460;11.450;2023-07-08T05:25:08;8.35;;;5.43;;
38591;SDS011;24356;48.460;11.450;2023-07-08T05:27:34;8.38;;;4.75;;
38591;SDS011;24356;48.460;11.450;2023-07-08T05:30:00;8.35;;;5.50;;
38591;SDS011;24356;48.460;11.450;2023-07-08T05:32:26;10.02;;;4.55;;
38591;SDS011;24356;48.460;11.450;2023-07-08T05:34:53;10.90;;;5.22;;
38591;SDS011;24356;48.460;11.450;2023-07-08T05:37:18;8.85;;;5.20;;
38591;SDS011;24356;48.460;11.450;2023-07-08T05:39:48;7.72;;;5.13;;
38591;SDS011;24356;48.460;11.450;2023-07-08T05:42:15;9.55;;;5.13;;
38591;SDS011;24356;48.460;11.450;2023-07-08T05:44:41;9.30;;;5.30;;
38591;SDS011;24356;48.460;11.450;2023-07-08T05:47:06;8.77;;;5.40;;
38591;SDS011;24356;48.460;11.450;2023-07-08T05:49:32;13.48;;;5.00;;
38591;SDS011;24356;48.460;11.450;2023-07-08T05:51:59;9.60;;;4.90;;
38591;SDS011;24356;48.460;11.450;2023-07-08T05:54:30;11.35;;;4.80;;
38591;SDS011;24356;48.460;11.450;2023-07-08T05:56:57;10.10;;;5.05;;
38591;SDS011;24356;48.460;11.450;2023-07-08T05:59:22;11.15;;;5.28;;
38591;SDS011;24356;48.460;11.450;2023-07-08T06:01:48;8.48;;;5.00;;
38591;SDS011;24356;48.460;11.450;2023-07-08T06:04:14;8.77;;;5.05;;
38591;SDS011;24356;48.460;11.450;2023-07-08T06:06:40;7.60;;;4.40;;
38591;SDS011;24356;48.460;11.450;2023-07-08T06:09:06;7.78;;;5.15;;
38591;SDS011;24356;48.460;11.450;2023-07-08T06:11:31;7.22;;;4.90;;
38591;SDS011;24356;48.460;11.450;2023-07-08T06:13:57;8.95;;;5.20;;
38591;SDS011;24356;48.460;11.450;2023-07-08T06:16:23;8.35;;;4.90;;
38591;SDS011;24356;48.460;11.450;2023-07-08T06:18:48;8.50;;;4.72;;
38591;SDS011;24356;48.460;11.450;2023-07-08T06:21:15;8.55;;;5.22;;
38591;SDS011;24356;48.460;11.450;2023-07-08T06:23:40;7.90;;;4.60;;
38591;SDS011;24356;48.460;11.450;2023-07-08T06:26:06;7.95;;;5.30;;
38591;SDS011;24356;48.460;11.450;2023-07-08T06:28:31;10.15;;;5.07;;
38591;SDS011;24356;48.460;11.450;2023-07-08T06:30:57;7.75;;;5.07;;
38591;SDS011;24356;48.460;11.450;2023-07-08T06:33:22;7.25;;;4.68;;
38591;SDS011;24356;48.460;11.450;2023-07-08T06:35:48;13.98;;;5.20;;
38591;SDS011;24356;48.460;11.450;2023-07-08T06:38:13;9.02;;;4.78;;
38591;SDS011;24356;48.460;11.450;2023-07-08T06:40:39;9.05;;;4.88;;
38591;SDS011;24356;48.460;11.450;2023-07-08T06:43:05;8.82;;;5.13;;
38591;SDS011;24356;48.460;11.450;2023-07-08T06:45:32;14.75;;;4.95;;
38591;SDS011;24356;48.460;11.450;2023-07-08T06:47:57;9.90;;;5.22;;
38591;SDS011;24356;48.460;11.450;2023-07-08T06:50:23;9.15;;;5.20;;
38591;SDS011;24356;48.460;11.450;2023-07-08T06:52:48;9.10;;;4.85;;
38591;SDS011;24356;48.460;11.450;2023-07-08T06:55:15;10.73;;;5.50;;
38591;SDS011;24356;48.460;11.450;2023-07-08T06:57:41;8.63;;;4.85;;
38591;SDS011;24356;48.460;11.450;2023-07-08T07:00:07;10.40;;;5.35;;
38591;SDS011;24356;48.460;11.450;2023-07-08T07:02:37;9.60;;;5.60;;
38591;SDS011;24356;48.460;11.450;2023-07-08T07:05:03;9.18;;;5.20;;
38591;SDS011;24356;48.460;11.450;2023-07-08T07:07:29;10.20;;;4.55;;
38591;SDS011;24356;48.460;11.450;2023-07-08T07:09:55;9.45;;;5.05;;
38591;SDS011;24356;48.460;11.450;2023-07-08T07:12:21;7.55;;;5.03;;
38591;SDS011;24356;48.460;11.450;2023-07-08T07:14:50;9.23;;;4.80;;
38591;SDS011;24356;48.460;11.450;2023-07-08T07:17:17;9.57;;;5.13;;
38591;SDS011;24356;48.460;11.450;2023-07-08T07:19:44;8.27;;;4.60;;
38591;SDS011;24356;48.460;11.450;2023-07-08T07:22:09;8.05;;;4.97;;
38591;SDS011;24356;48.460;11.450;2023-07-08T07:24:35;8.00;;;5.00;;
38591;SDS011;24356;48.460;11.450;2023-07-08T07:27:00;9.55;;;4.95;;
38591;SDS011;24356;48.460;11.450;2023-07-08T07:29:26;9.25;;;5.22;;
38591;SDS011;24356;48.460;11.450;2023-07-08T07:31:52;8.85;;;5.28;;
38591;SDS011;24356;48.460;11.450;2023-07-08T07:34:17;9.02;;;5.68;;
38591;SDS011;24356;48.460;11.450;2023-07-08T07:36:43;8.95;;;5.30;;
38591;SDS011;24356;48.460;11.450;2023-07-08T07:39:09;10.95;;;5.32;;
38591;SDS011;24356;48.460;11.450;2023-07-08T07:41:34;10.85;;;5.22;;
38591;SDS011;24356;48.460;11.450;2023-07-08T07:44:00;8.23;;;4.80;;
38591;SDS011;24356;48.460;11.450;2023-07-08T07:46:25;7.47;;;5.05;;
38591;SDS011;24356;48.460;11.450;2023-07-08T07:48:52;10.63;;;5.47;;
38591;SDS011;24356;48.460;11.450;2023-07-08T07:51:18;7.30;;;4.70;;
38591;SDS011;24356;48.460;11.450;2023-07-08T07:53:44;8.98;;;5.30;;
38591;SDS011;24356;48.460;11.450;2023-07-08T07:56:10;8.70;;;5.50;;
38591;SDS011;24356;48.460;11.450;2023-07-08T07:58:35;7.80;;;5.07;;
38591;SDS011;24356;48.460;11.450;2023-07-08T08:01:02;13.73;;;5.85;;
38591;SDS011;24356;48.460;11.450;2023-07-08T08:03:28;11.35;;;5.22;;
38591;SDS011;24356;48.460;11.450;2023-07-08T08:05:53;8.40;;;5.30;;
38591;SDS011;24356;48.460;11.450;2023-07-08T08:08:19;9.57;;;5.50;;
38591;SDS011;24356;48.460;11.450;2023-07-08T08:10:45;9.18;;;5.72;;
38591;SDS011;24356;48.460;11.450;2023-07-08T08:13:12;9.20;;;5.47;;
38591;SDS011;24356;48.460;11.450;2023-07-08T08:15:38;9.52;;;5.57;;
38591;SDS011;24356;48.460;11.450;2023-07-08T08:18:04;8.77;;;5.22;;
38591;SDS011;24356;48.460;11.450;2023-07-08T08:20:29;8.93;;;5.35;;
38591;SDS011;24356;48.460;11.450;2023-07-08T08:22:55;8.57;;;5.05;;
38591;SDS011;24356;48.460;11.450;2023-07-08T08:25:21;8.88;;;5.75;;
38591;SDS011;24356;48.460;11.450;2023-07-08T08:27:51;9.05;;;5.70;;
38591;SDS011;24356;48.460;11.450;2023-07-08T08:30:18;9.07;;;5.78;;
38591;SDS011;24356;48.460;11.450;2023-07-08T08:32:44;10.73;;;5.18;;
38591;SDS011;24356;48.460;11.450;2023-07-08T08:35:10;9.85;;;5.55;;
38591;SDS011;24356;48.460;11.450;2023-07-08T08:37:35;9.32;;;5.50;;
38591;SDS011;24356;48.460;11.450;2023-07-08T08:40:01;10.18;;;5.80;;
38591;SDS011;24356;48.460;11.450;2023-07-08T08:42:29;12.30;;;5.20;;
38591;SDS011;24356;48.460;11.450;2023-07-08T08:45:10;12.70;;;5.78;;
38591;SDS011;24356;48.460;11.450;2023-07-08T08:47:44;8.05;;;5.28;;
38591;SDS011;24356;48.460;11.450;2023-07-08T08:50:24;8.63;;;5.32;;
38591;SDS011;24356;48.460;11.450;2023-07-08T08:52:54;8.60;;;5.28;;
38591;SDS011;24356;48.460;11.450;2023-07-08T08:55:22;10.88;;;5.90;;
38591;SDS011;24356;48.460;11.450;2023-07-08T08:57:59;8.90;;;5.32;;
38591;SDS011;24356;48.460;11.450;2023-07-08T09:00:45;9.35;;;5.20;;
38591;SDS011;24356;48.460;11.450;2023-07-08T09:03:18;8.43;;;5.43;;
38591;SDS011;24356;48.460;11.450;2023-07-08T09:05:59;10.07;;;5.63;;
38591;SDS011;24356;48.460;11.450;2023-07-08T09:08:35;10.82;;;5.25;;
38591;SDS011;24356;48.460;11.450;2023-07-08T09:13:36;10.98;;;5.90;;
38591;SDS011;24356;48.460;11.450;2023-07-08T09:16:07;47.92;;;6.93;;
38591;SDS011;24356;48.460;11.450;2023-07-08T09:18:36;8.93;;;5.68;;
38591;SDS011;24356;48.460;11.450;2023-07-08T09:21:16;10.00;;;5.97;;
38591;SDS011;24356;48.460;11.450;2023-07-08T09:23:54;11.60;;;6.13;;
38591;SDS011;24356;48.460;11.450;2023-07-08T09:26:25;11.02;;;5.85;;
38591;SDS011;24356;48.460;11.450;2023-07-08T09:28:53;10.00;;;5.55;;
38591;SDS011;24356;48.460;11.450;2023-07-08T09:31:23;15.65;;;5.85;;
38591;SDS011;24356;48.460;11.450;2023-07-08T09:33:54;10.20;;;5.55;;
38591;SDS011;24356;48.460;11.450;2023-07-08T09:36:50;44.38;;;7.28;;
38591;SDS011;24356;48.460;11.450;2023-07-08T09:39:17;21.23;;;6.63;;
38591;SDS011;24356;48.460;11.450;2023-07-08T09:41:46;15.70;;;6.68;;
38591;SDS011;24356;48.460;11.450;2023-07-08T09:46:55;10.32;;;6.15;;
38591;SDS011;24356;48.460;11.450;2023-07-08T09:49:30;9.27;;;5.93;;
38591;SDS011;24356;48.460;11.450;2023-07-08T09:51:59;10.75;;;6.10;;
38591;SDS011;24356;48.460;11.450;2023-07-08T09:54:26;12.63;;;6.20;;
38591;SDS011;24356;48.460;11.450;2023-07-08T09:59:38;12.70;;;6.40;;
38591;SDS011;24356;48.460;11.450;2023-07-08T10:02:28;12.90;;;6.40;;
38591;SDS011;24356;48.460;11.450;2023-07-08T10:04:59;15.23;;;6.13;;
38591;SDS011;24356;48.460;11.450;2023-07-08T10:07:29;15.40;;;6.28;;
38591;SDS011;24356;48.460;11.450;2023-07-08T10:09:57;10.65;;;5.85;;
38591;SDS011;24356;48.460;11.450;2023-07-08T10:12:26;12.85;;;6.53;;
38591;SDS011;24356;48.460;11.450;2023-07-08T10:14:57;13.18;;;6.93;;
38591;SDS011;24356;48.460;11.450;2023-07-08T10:17:31;9.45;;;6.28;;
38591;SDS011;24356;48.460;11.450;2023-07-08T10:19:59;10.40;;;6.45;;
38591;SDS011;24356;48.460;11.450;2023-07-08T10:22:35;7.80;;;5.65;;
38591;SDS011;24356;48.460;11.450;2023-07-08T10:25:12;9.88;;;6.20;;
38591;SDS011;24356;48.460;11.450;2023-07-08T10:27:55;9.55;;;5.57;;
38591;SDS011;24356;48.460;11.450;2023-07-08T10:31:08;11.85;;;5.80;;
38591;SDS011;24356;48.460;11.450;2023-07-08T10:33:51;9.13;;;5.78;;
38591;SDS011;24356;48.460;11.450;2023-07-08T10:42:49;11.25;;;6.38;;
38591;SDS011;24356;48.460;11.450;2023-07-08T10:48:40;10.77;;;5.78;;
38591;SDS011;24356;48.460;11.450;2023-07-08T10:56:54;12.73;;;6.07;;
38591;SDS011;24356;48.460;11.450;2023-07-08T10:59:41;8.75;;;6.07;;
38591;SDS011;24356;48.460;11.450;2023-07-08T11:07:51;9.45;;;5.70;;
38591;SDS011;24356;48.460;11.450;2023-07-08T11:10:27;9.63;;;5.80;;
38591;SDS011;24356;48.460;11.450;2023-07-08T11:16:12;11.05;;;5.90;;
38591;SDS011;24356;48.460;11.450;2023-07-08T11:18:19;12.13;;;6.47;;
38591;SDS011;24356;48.460;11.450;2023-07-08T11:21:02;9.57;;;6.10;;
38591;SDS011;24356;48.460;11.450;2023-07-08T11:23:46;14.73;;;6.10;;
38591;SDS011;24356;48.460;11.450;2023-07-08T11:26:39;9.68;;;5.78;;
38591;SDS011;24356;48.460;11.450;2023-07-08T11:32:25;8.38;;;5.60;;
38591;SDS011;24356;48.460;11.450;2023-07-08T11:34:54;8.45;;;6.03;;
38591;SDS011;24356;48.460;11.450;2023-07-08T11:37:22;10.30;;;6.10;;
38591;SDS011;24356;48.460;11.450;2023-07-08T11:40:09;11.38;;;5.88;;
38591;SDS011;24356;48.460;11.450;2023-07-08T11:42:47;10.02;;;5.63;;
38591;SDS011;24356;48.460;11.450;2023-07-08T11:47:49;10.43;;;5.90;;
38591;SDS011;24356;48.460;11.450;2023-07-08T11:50:28;8.30;;;5.43;;
38591;SDS011;24356;48.460;11.450;2023-07-08T11:53:31;9.10;;;5.22;;
38591;SDS011;24356;48.460;11.450;2023-07-08T11:55:58;7.60;;;5.70;;
38591;SDS011;24356;48.460;11.450;2023-07-08T11:58:49;11.32;;;5.90;;
38591;SDS011;24356;48.460;11.450;2023-07-08T12:01:28;8.65;;;5.68;;
38591;SDS011;24356;48.460;11.450;2023-07-08T12:09:12;7.82;;;5.28;;
38591;SDS011;24356;48.460;11.450;2023-07-08T12:11:40;8.63;;;5.00;;
38591;SDS011;24356;48.460;11.450;2023-07-08T12:14:10;10.70;;;5.65;;
38591;SDS011;24356;48.460;11.450;2023-07-08T12:16:37;10.93;;;4.85;;
38591;SDS011;24356;48.460;11.450;2023-07-08T12:19:03;8.27;;;5.13;;
38591;SDS011;24356;48.460;11.450;2023-07-08T12:21:30;8.55;;;4.70;;
38591;SDS011;24356;48.460;11.450;2023-07-08T12:24:06;10.00;;;4.78;;
38591;SDS011;24356;48.460;11.450;2023-07-08T12:26:33;8.40;;;5.40;;
38591;SDS011;24356;48.460;11.450;2023-07-08T12:28:58;8.60;;;4.80;;
38591;SDS011;24356;48.460;11.450;2023-07-08T12:31:24;10.80;;;4.90;;
38591;SDS011;24356;48.460;11.450;2023-07-08T12:33:50;10.60;;;5.10;;
38591;SDS011;24356;48.460;11.450;2023-07-08T12:36:18;7.13;;;4.57;;
38591;SDS011;24356;48.460;11.450;2023-07-08T12:38:45;9.32;;;4.90;;
38591;SDS011;24356;48.460;11.450;2023-07-08T12:41:19;8.43;;;5.00;;
38591;SDS011;24356;48.460;11.450;2023-07-08T12:43:47;11.40;;;5.45;;
38591;SDS011;24356;48.460;11.450;2023-07-08T12:46:14;11.13;;;5.18;;
38591;SDS011;24356;48.460;11.450;2023-07-08T12:48:42;6.50;;;4.93;;
38591;SDS011;24356;48.460;11.450;2023-07-08T12:51:11;8.20;;;5.07;;
38591;SDS011;24356;48.460;11.450;2023-07-08T12:53:38;8.90;;;5.32;;
38591;SDS011;24356;48.460;11.450;2023-07-08T12:56:05;9.57;;;5.20;;
38591;SDS011;24356;48.460;11.450;2023-07-08T12:58:33;7.05;;;4.75;;
38591;SDS011;24356;48.460;11.450;2023-07-08T13:01:02;11.23;;;5.40;;
38591;SDS011;24356;48.460;11.450;2023-07-08T13:03:31;6.88;;;5.15;;
38591;SDS011;24356;48.460;11.450;2023-07-08T13:06:01;13.73;;;5.72;;
38591;SDS011;24356;48.460;11.450;2023-07-08T13:08:29;12.25;;;5.20;;
38591;SDS011;24356;48.460;11.450;2023-07-08T13:10:59;8.82;;;5.32;;
38591;SDS011;24356;48.460;11.450;2023-07-08T13:13:31;10.50;;;5.13;;
38591;SDS011;24356;48.460;11.450;2023-07-08T13:15:59;10.20;;;5.32;;
38591;SDS011;24356;48.460;11.450;2023-07-08T13:21:02;6.85;;;4.75;;
38591;SDS011;24356;48.460;11.450;2023-07-08T13:39:06;8.38;;;5.10;;
38591;SDS011;24356;48.460;11.450;2023-07-08T13:41:34;7.20;;;4.82;;
38591;SDS011;24356;48.460;11.450;2023-07-08T13:44:44;10.05;;;5.30;;
38591;SDS011;24356;48.460;11.450;2023-07-08T13:47:19;7.10;;;4.93;;
38591;SDS011;24356;48.460;11.450;2023-07-08T13:50:22;8.70;;;5.18;;
38591;SDS011;24356;48.460;11.450;2023-07-08T13:52:56;11.32;;;5.00;;
38591;SDS011;24356;48.460;11.450;2023-07-08T13:55:22;7.93;;;4.78;;
38591;SDS011;24356;48.460;11.450;2023-07-08T13:57:56;6.60;;;4.72;;
38591;SDS011;24356;48.460;11.450;2023-07-08T14:00:25;7.68;;;4.78;;
38591;SDS011;24356;48.460;11.450;2023-07-08T14:03:01;8.00;;;4.63;;
38591;SDS011;24356;48.460;11.450;2023-07-08T14:05:32;9.20;;;4.90;;
38591;SDS011;24356;48.460;11.450;2023-07-08T14:07:57;9.70;;;4.90;;
38591;SDS011;24356;48.460;11.450;2023-07-08T14:10:23;6.07;;;5.05;;
38591;SDS011;24356;48.460;11.450;2023-07-08T14:12:51;8.00;;;5.10;;
38591;SDS011;24356;48.460;11.450;2023-07-08T14:15:17;6.70;;;4.80;;
38591;SDS011;24356;48.460;11.450;2023-07-08T14:17:42;7.55;;;4.85;;
38591;SDS011;24356;48.460;11.450;2023-07-08T14:20:11;7.57;;;5.00;;
38591;SDS011;24356;48.460;11.450;2023-07-08T14:26:12;8.40;;;5.17;;
38591;SDS011;24356;48.460;11.450;2023-07-08T14:28:38;8.13;;;5.00;;
38591;SDS011;24356;48.460;11.450;2023-07-08T14:31:22;10.40;;;5.25;;
38591;SDS011;24356;48.460;11.450;2023-07-08T14:34:44;8.75;;;4.68;;
38591;SDS011;24356;48.460;11.450;2023-07-08T14:37:37;8.27;;;4.78;;
38591;SDS011;24356;48.460;11.450;2023-07-08T14:42:55;10.10;;;4.68;;
38591;SDS011;24356;48.460;11.450;2023-07-08T14:52:08;7.85;;;5.05;;
38591;SDS011;24356;48.460;11.450;2023-07-08T14:54:47;8.00;;;4.60;;
38591;SDS011;24356;48.460;11.450;2023-07-08T14:57:25;7.15;;;5.00;;
38591;SDS011;24356;48.460;11.450;2023-07-08T15:00:04;7.22;;;5.00;;
38591;SDS011;24356;48.460;11.450;2023-07-08T15:02:30;5.80;;;4.30;;
38591;SDS011;24356;48.460;11.450;2023-07-08T15:04:59;11.15;;;4.95;;
38591;SDS011;24356;48.460;11.450;2023-07-08T15:07:25;6.55;;;4.57;;
38591;SDS011;24356;48.460;11.450;2023-07-08T15:09:50;7.05;;;4.72;;
38591;SDS011;24356;48.460;11.450;2023-07-08T15:12:16;11.52;;;4.70;;
38591;SDS011;24356;48.460;11.450;2023-07-08T15:14:41;9.10;;;4.47;;
38591;SDS011;24356;48.460;11.450;2023-07-08T15:17:14;7.20;;;4.93;;
38591;SDS011;24356;48.460;11.450;2023-07-08T15:19:44;5.97;;;4.57;;
38591;SDS011;24356;48.460;11.450;2023-07-08T15:22:10;8.40;;;4.60;;
38591;SDS011;24356;48.460;11.450;2023-07-08T15:24:36;9.65;;;4.90;;
38591;SDS011;24356;48.460;11.450;2023-07-08T15:27:02;6.05;;;4.60;;
38591;SDS011;24356;48.460;11.450;2023-07-08T15:29:29;8.65;;;4.63;;
38591;SDS011;24356;48.460;11.450;2023-07-08T15:31:55;6.75;;;4.60;;
38591;SDS011;24356;48.460;11.450;2023-07-08T15:34:21;6.28;;;4.55;;
38591;SDS011;24356;48.460;11.450;2023-07-08T15:36:47;6.78;;;5.03;;
38591;SDS011;24356;48.460;11.450;2023-07-08T15:39:17;7.55;;;4.90;;
38591;SDS011;24356;48.460;11.450;2023-07-08T15:41:43;8.90;;;4.57;;
38591;SDS011;24356;48.460;11.450;2023-07-08T15:44:09;8.95;;;4.15;;
38591;SDS011;24356;48.460;11.450;2023-07-08T15:46:40;6.15;;;4.45;;
38591;SDS011;24356;48.460;11.450;2023-07-08T15:49:16;8.43;;;4.32;;
38591;SDS011;24356;48.460;11.450;2023-07-08T15:51:43;9.48;;;4.72;;
38591;SDS011;24356;48.460;11.450;2023-07-08T15:54:10;6.28;;;4.50;;
38591;SDS011;24356;48.460;11.450;2023-07-08T15:56:38;8.95;;;5.05;;
38591;SDS011;24356;48.460;11.450;2023-07-08T15:59:05;6.15;;;4.30;;
38591;SDS011;24356;48.460;11.450;2023-07-08T16:01:39;8.82;;;4.18;;
38591;SDS011;24356;48.460;11.450;2023-07-08T16:04:19;8.50;;;4.20;;
38591;SDS011;24356;48.460;11.450;2023-07-08T16:09:14;10.82;;;4.38;;